sensor_id;sensor_type;location;lat;lon;timestamp;P1;durP1;ratioP1;P2;durP2;ratioP2
6199;SDS011;3133;43.214;27.906;2023-06-14T00:00:25;2.73;;;2.53;;
6199;SDS011;3133;43.214;27.906;2023-06-14T00:02:52;2.40;;;2.20;;
6199;SDS011;3133;43.214;27.906;2023-06-14T00:05:22;3.73;;;2.80;;
6199;SDS011;3133;43.214;27.906;2023-06-14T00:07:49;2.70;;;2.50;;
6199;SDS011;3133;43.214;27.906;2023-06-14T00:10:18;5.87;;;2.63;;
6199;SDS011;3133;43.214;27.906;2023-06-14T00:12:45;4.00;;;2.87;;
6199;SDS011;3133;43.214;27.906;2023-06-14T00:15:13;3.07;;;2.60;;
6199;SDS011;3133;43.214;27.906;2023-06-14T00:17:39;3.00;;;2.30;;
6199;SDS011;3133;43.214;27.906;2023-06-14T00:20:06;3.40;;;3.07;;
6199;SDS011;3133;43.214;27.906;2023-06-14T00:22:36;4.27;;;3.13;;
6199;SDS011;3133;43.214;27.906;2023-06-14T00:25:04;2.80;;;2.60;;
6199;SDS011;3133;43.214;27.906;2023-06-14T00:27:31;3.10;;;2.63;;
6199;SDS011;3133;43.214;27.906;2023-06-14T00:29:58;2.80;;;2.60;;
6199;SDS011;3133;43.214;27.906;2023-06-14T00:32:25;5.70;;;3.20;;
6199;SDS011;3133;43.214;27.906;2023-06-14T00:34:53;4.97;;;3.23;;
6199;SDS011;3133;43.214;27.906;2023-06-14T00:37:19;3.03;;;2.70;;
6199;SDS011;3133;43.214;27.906;2023-06-14T00:39:48;3.77;;;3.17;;
6199;SDS011;3133;43.214;27.906;2023-06-14T00:42:22;4.40;;;2.70;;
6199;SDS011;3133;43.214;27.906;2023-06-14T00:44:50;3.67;;;2.60;;
6199;SDS011;3133;43.214;27.906;2023-06-14T00:47:17;4.27;;;2.90;;
6199;SDS011;3133;43.214;27.906;2023-06-14T00:49:45;3.13;;;2.73;;
6199;SDS011;3133;43.214;27.906;2023-06-14T00:52:12;3.40;;;2.90;;
6199;SDS011;3133;43.214;27.906;2023-06-14T00:54:40;3.20;;;2.90;;
6199;SDS011;3133;43.214;27.906;2023-06-14T00:57:08;5.47;;;3.23;;
6199;SDS011;3133;43.214;27.906;2023-06-14T01:02:07;3.20;;;3.00;;
6199;SDS011;3133;43.214;27.906;2023-06-14T01:04:34;3.90;;;2.90;;
6199;SDS011;3133;43.214;27.906;2023-06-14T01:07:02;3.70;;;3.27;;
6199;SDS011;3133;43.214;27.906;2023-06-14T01:09:41;6.30;;;2.60;;
6199;SDS011;3133;43.214;27.906;2023-06-14T01:12:21;3.40;;;3.03;;
6199;SDS011;3133;43.214;27.906;2023-06-14T01:14:55;7.37;;;3.07;;
6199;SDS011;3133;43.214;27.906;2023-06-14T01:17:24;6.47;;;3.60;;
6199;SDS011;3133;43.214;27.906;2023-06-14T01:19:52;4.73;;;2.93;;
6199;SDS011;3133;43.214;27.906;2023-06-14T01:22:23;3.10;;;2.80;;
6199;SDS011;3133;43.214;27.906;2023-06-14T01:24:53;4.03;;;3.47;;
6199;SDS011;3133;43.214;27.906;2023-06-14T01:27:21;3.63;;;3.00;;
6199;SDS011;3133;43.214;27.906;2023-06-14T01:29:53;3.50;;;3.20;;
6199;SDS011;3133;43.214;27.906;2023-06-14T01:32:23;4.93;;;3.70;;
6199;SDS011;3133;43.214;27.906;2023-06-14T01:34:50;3.80;;;3.37;;
6199;SDS011;3133;43.214;27.906;2023-06-14T01:37:17;3.70;;;3.33;;
6199;SDS011;3133;43.214;27.906;2023-06-14T01:39:47;4.00;;;3.20;;
6199;SDS011;3133;43.214;27.906;2023-06-14T01:42:17;4.17;;;3.47;;
6199;SDS011;3133;43.214;27.906;2023-06-14T01:44:44;4.03;;;3.60;;
6199;SDS011;3133;43.214;27.906;2023-06-14T01:47:14;4.07;;;3.60;;
6199;SDS011;3133;43.214;27.906;2023-06-14T01:49:41;3.70;;;3.27;;
6199;SDS011;3133;43.214;27.906;2023-06-14T01:52:07;4.80;;;3.60;;
6199;SDS011;3133;43.214;27.906;2023-06-14T01:54:35;3.10;;;2.77;;
6199;SDS011;3133;43.214;27.906;2023-06-14T01:57:07;4.23;;;3.77;;
6199;SDS011;3133;43.214;27.906;2023-06-14T01:59:36;5.20;;;3.47;;
6199;SDS011;3133;43.214;27.906;2023-06-14T02:02:03;7.60;;;3.60;;
6199;SDS011;3133;43.214;27.906;2023-06-14T02:04:33;4.27;;;3.53;;
6199;SDS011;3133;43.214;27.906;2023-06-14T02:07:00;3.87;;;3.57;;
6199;SDS011;3133;43.214;27.906;2023-06-14T02:09:27;4.53;;;3.90;;
6199;SDS011;3133;43.214;27.906;2023-06-14T02:11:54;5.80;;;4.47;;
6199;SDS011;3133;43.214;27.906;2023-06-14T02:14:20;10.80;;;4.80;;
6199;SDS011;3133;43.214;27.906;2023-06-14T02:16:49;9.23;;;5.90;;
6199;SDS011;3133;43.214;27.906;2023-06-14T02:19:16;4.80;;;4.23;;
6199;SDS011;3133;43.214;27.906;2023-06-14T02:21:43;4.73;;;4.13;;
6199;SDS011;3133;43.214;27.906;2023-06-14T02:24:11;4.93;;;4.30;;
6199;SDS011;3133;43.214;27.906;2023-06-14T02:26:38;4.43;;;4.03;;
6199;SDS011;3133;43.214;27.906;2023-06-14T02:29:06;5.67;;;5.03;;
6199;SDS011;3133;43.214;27.906;2023-06-14T02:31:35;7.70;;;5.57;;
6199;SDS011;3133;43.214;27.906;2023-06-14T02:34:03;7.60;;;6.07;;
6199;SDS011;3133;43.214;27.906;2023-06-14T02:36:30;11.10;;;7.10;;
6199;SDS011;3133;43.214;27.906;2023-06-14T02:38:57;12.80;;;7.10;;
6199;SDS011;3133;43.214;27.906;2023-06-14T02:41:24;6.67;;;5.73;;
6199;SDS011;3133;43.214;27.906;2023-06-14T02:43:51;7.13;;;5.80;;
6199;SDS011;3133;43.214;27.906;2023-06-14T02:46:18;7.67;;;5.83;;
6199;SDS011;3133;43.214;27.906;2023-06-14T02:48:45;6.47;;;5.50;;
6199;SDS011;3133;43.214;27.906;2023-06-14T02:51:13;8.60;;;5.13;;
6199;SDS011;3133;43.214;27.906;2023-06-14T02:53:40;6.60;;;4.90;;
6199;SDS011;3133;43.214;27.906;2023-06-14T02:56:07;7.53;;;5.40;;
6199;SDS011;3133;43.214;27.906;2023-06-14T02:58:33;6.43;;;5.47;;
6199;SDS011;3133;43.214;27.906;2023-06-14T03:01:02;6.17;;;4.70;;
6199;SDS011;3133;43.214;27.906;2023-06-14T03:03:29;7.23;;;5.30;;
6199;SDS011;3133;43.214;27.906;2023-06-14T03:05:56;7.43;;;4.97;;
6199;SDS011;3133;43.214;27.906;2023-06-14T03:08:29;5.50;;;4.23;;
6199;SDS011;3133;43.214;27.906;2023-06-14T03:10:56;14.63;;;4.73;;
6199;SDS011;3133;43.214;27.906;2023-06-14T03:13:23;6.53;;;4.97;;
6199;SDS011;3133;43.214;27.906;2023-06-14T03:15:51;6.73;;;4.07;;
6199;SDS011;3133;43.214;27.906;2023-06-14T03:18:18;4.70;;;4.27;;
6199;SDS011;3133;43.214;27.906;2023-06-14T03:20:47;10.90;;;4.50;;
6199;SDS011;3133;43.214;27.906;2023-06-14T03:23:16;6.50;;;5.10;;
6199;SDS011;3133;43.214;27.906;2023-06-14T03:25:44;5.50;;;4.60;;
6199;SDS011;3133;43.214;27.906;2023-06-14T03:28:11;8.23;;;4.67;;
6199;SDS011;3133;43.214;27.906;2023-06-14T03:30:38;6.50;;;4.80;;
6199;SDS011;3133;43.214;27.906;2023-06-14T03:33:05;12.50;;;5.20;;
6199;SDS011;3133;43.214;27.906;2023-06-14T03:35:34;6.53;;;4.73;;
6199;SDS011;3133;43.214;27.906;2023-06-14T03:38:01;6.50;;;5.33;;
6199;SDS011;3133;43.214;27.906;2023-06-14T03:40:29;6.07;;;5.27;;
6199;SDS011;3133;43.214;27.906;2023-06-14T03:42:57;7.57;;;5.80;;
6199;SDS011;3133;43.214;27.906;2023-06-14T03:45:25;9.63;;;5.70;;
6199;SDS011;3133;43.214;27.906;2023-06-14T03:47:51;8.77;;;5.97;;
6199;SDS011;3133;43.214;27.906;2023-06-14T03:50:19;9.87;;;6.40;;
6199;SDS011;3133;43.214;27.906;2023-06-14T03:52:47;6.93;;;6.10;;
6199;SDS011;3133;43.214;27.906;2023-06-14T03:55:15;6.53;;;5.70;;
6199;SDS011;3133;43.214;27.906;2023-06-14T03:57:42;11.20;;;6.30;;
6199;SDS011;3133;43.214;27.906;2023-06-14T04:00:11;9.30;;;6.73;;
6199;SDS011;3133;43.214;27.906;2023-06-14T04:02:40;8.23;;;5.97;;
6199;SDS011;3133;43.214;27.906;2023-06-14T04:05:07;8.17;;;6.17;;
6199;SDS011;3133;43.214;27.906;2023-06-14T04:07:34;11.60;;;6.43;;
6199;SDS011;3133;43.214;27.906;2023-06-14T04:10:05;9.60;;;6.27;;
6199;SDS011;3133;43.214;27.906;2023-06-14T04:12:33;8.40;;;6.13;;
6199;SDS011;3133;43.214;27.906;2023-06-14T04:15:00;12.50;;;6.03;;
6199;SDS011;3133;43.214;27.906;2023-06-14T04:17:29;12.87;;;6.53;;
6199;SDS011;3133;43.214;27.906;2023-06-14T04:19:58;9.93;;;7.60;;
6199;SDS011;3133;43.214;27.906;2023-06-14T04:22:25;10.03;;;8.03;;
6199;SDS011;3133;43.214;27.906;2023-06-14T04:24:53;15.60;;;8.03;;
6199;SDS011;3133;43.214;27.906;2023-06-14T04:27:21;14.27;;;7.80;;
6199;SDS011;3133;43.214;27.906;2023-06-14T04:29:50;11.77;;;8.47;;
6199;SDS011;3133;43.214;27.906;2023-06-14T04:32:25;14.40;;;7.90;;
6199;SDS011;3133;43.214;27.906;2023-06-14T04:34:56;15.87;;;7.53;;
6199;SDS011;3133;43.214;27.906;2023-06-14T04:37:24;18.50;;;7.40;;
6199;SDS011;3133;43.214;27.906;2023-06-14T04:39:54;9.20;;;6.83;;
6199;SDS011;3133;43.214;27.906;2023-06-14T04:42:35;17.63;;;7.27;;
6199;SDS011;3133;43.214;27.906;2023-06-14T04:45:03;14.07;;;7.87;;
6199;SDS011;3133;43.214;27.906;2023-06-14T04:47:32;13.70;;;6.67;;
6199;SDS011;3133;43.214;27.906;2023-06-14T04:50:07;11.57;;;7.23;;
6199;SDS011;3133;43.214;27.906;2023-06-14T04:52:38;10.90;;;6.40;;
6199;SDS011;3133;43.214;27.906;2023-06-14T04:55:07;12.40;;;7.57;;
6199;SDS011;3133;43.214;27.906;2023-06-14T04:57:35;13.53;;;7.23;;
6199;SDS011;3133;43.214;27.906;2023-06-14T05:00:04;13.23;;;7.00;;
6199;SDS011;3133;43.214;27.906;2023-06-14T05:02:42;12.20;;;7.07;;
6199;SDS011;3133;43.214;27.906;2023-06-14T05:05:11;12.70;;;7.13;;
6199;SDS011;3133;43.214;27.906;2023-06-14T05:07:38;25.00;;;7.53;;
6199;SDS011;3133;43.214;27.906;2023-06-14T05:10:06;12.67;;;6.93;;
6199;SDS011;3133;43.214;27.906;2023-06-14T05:12:34;21.50;;;6.97;;
6199;SDS011;3133;43.214;27.906;2023-06-14T05:15:01;10.77;;;6.77;;
6199;SDS011;3133;43.214;27.906;2023-06-14T05:17:29;12.47;;;5.97;;
6199;SDS011;3133;43.214;27.906;2023-06-14T05:19:57;10.93;;;6.10;;
6199;SDS011;3133;43.214;27.906;2023-06-14T05:22:25;10.43;;;6.57;;
6199;SDS011;3133;43.214;27.906;2023-06-14T05:24:52;13.40;;;6.00;;
6199;SDS011;3133;43.214;27.906;2023-06-14T05:27:20;24.77;;;7.63;;
6199;SDS011;3133;43.214;27.906;2023-06-14T05:29:47;11.53;;;5.93;;
6199;SDS011;3133;43.214;27.906;2023-06-14T05:32:15;13.13;;;6.10;;
6199;SDS011;3133;43.214;27.906;2023-06-14T05:34:42;9.20;;;5.67;;
6199;SDS011;3133;43.214;27.906;2023-06-14T05:37:09;11.93;;;6.33;;
6199;SDS011;3133;43.214;27.906;2023-06-14T05:39:38;13.17;;;6.63;;
6199;SDS011;3133;43.214;27.906;2023-06-14T05:42:05;20.30;;;7.77;;
6199;SDS011;3133;43.214;27.906;2023-06-14T05:44:33;9.03;;;6.90;;
6199;SDS011;3133;43.214;27.906;2023-06-14T05:47:00;13.40;;;6.80;;
6199;SDS011;3133;43.214;27.906;2023-06-14T05:49:32;11.83;;;7.07;;
6199;SDS011;3133;43.214;27.906;2023-06-14T05:52:04;11.63;;;6.37;;
6199;SDS011;3133;43.214;27.906;2023-06-14T05:54:34;12.67;;;6.63;;
6199;SDS011;3133;43.214;27.906;2023-06-14T05:57:02;18.67;;;6.97;;
6199;SDS011;3133;43.214;27.906;2023-06-14T05:59:31;10.43;;;6.57;;
6199;SDS011;3133;43.214;27.906;2023-06-14T06:01:58;13.03;;;7.03;;
6199;SDS011;3133;43.214;27.906;2023-06-14T06:04:25;37.63;;;7.73;;
6199;SDS011;3133;43.214;27.906;2023-06-14T06:06:52;57.83;;;9.40;;
6199;SDS011;3133;43.214;27.906;2023-06-14T06:09:19;20.07;;;6.10;;
6199;SDS011;3133;43.214;27.906;2023-06-14T06:11:46;26.50;;;7.27;;
6199;SDS011;3133;43.214;27.906;2023-06-14T06:14:15;28.33;;;7.53;;
6199;SDS011;3133;43.214;27.906;2023-06-14T06:16:42;21.77;;;7.73;;
6199;SDS011;3133;43.214;27.906;2023-06-14T06:19:08;129.63;;;20.13;;
6199;SDS011;3133;43.214;27.906;2023-06-14T06:21:35;16.17;;;7.13;;
6199;SDS011;3133;43.214;27.906;2023-06-14T06:24:04;140.53;;;24.43;;
6199;SDS011;3133;43.214;27.906;2023-06-14T06:26:31;17.70;;;7.00;;
6199;SDS011;3133;43.214;27.906;2023-06-14T06:28:59;22.33;;;7.10;;
6199;SDS011;3133;43.214;27.906;2023-06-14T06:31:28;19.07;;;6.27;;
6199;SDS011;3133;43.214;27.906;2023-06-14T06:33:55;11.87;;;7.10;;
6199;SDS011;3133;43.214;27.906;2023-06-14T06:36:28;22.23;;;7.23;;
6199;SDS011;3133;43.214;27.906;2023-06-14T06:38:55;70.63;;;13.20;;
6199;SDS011;3133;43.214;27.906;2023-06-14T06:41:22;21.03;;;8.27;;
6199;SDS011;3133;43.214;27.906;2023-06-14T06:43:49;18.33;;;11.57;;
6199;SDS011;3133;43.214;27.906;2023-06-14T06:46:16;26.23;;;9.20;;
6199;SDS011;3133;43.214;27.906;2023-06-14T06:48:45;16.37;;;8.90;;
6199;SDS011;3133;43.214;27.906;2023-06-14T06:51:12;76.40;;;14.40;;
6199;SDS011;3133;43.214;27.906;2023-06-14T06:53:42;28.80;;;8.77;;
6199;SDS011;3133;43.214;27.906;2023-06-14T06:56:18;21.57;;;9.30;;
6199;SDS011;3133;43.214;27.906;2023-06-14T06:58:54;12.40;;;5.37;;
6199;SDS011;3133;43.214;27.906;2023-06-14T07:01:42;27.63;;;6.07;;
6199;SDS011;3133;43.214;27.906;2023-06-14T07:04:21;25.47;;;6.67;;
6199;SDS011;3133;43.214;27.906;2023-06-14T07:06:48;8.87;;;3.53;;
6199;SDS011;3133;43.214;27.906;2023-06-14T07:09:15;3.57;;;3.27;;
6199;SDS011;3133;43.214;27.906;2023-06-14T07:11:46;5.73;;;3.27;;
6199;SDS011;3133;43.214;27.906;2023-06-14T07:14:14;6.80;;;3.70;;
6199;SDS011;3133;43.214;27.906;2023-06-14T07:16:41;6.00;;;3.90;;
6199;SDS011;3133;43.214;27.906;2023-06-14T07:19:08;42.77;;;7.03;;
6199;SDS011;3133;43.214;27.906;2023-06-14T07:21:41;24.47;;;5.97;;
6199;SDS011;3133;43.214;27.906;2023-06-14T07:24:10;17.47;;;5.80;;
6199;SDS011;3133;43.214;27.906;2023-06-14T07:26:38;8.30;;;4.10;;
6199;SDS011;3133;43.214;27.906;2023-06-14T07:29:08;4.97;;;3.67;;
6199;SDS011;3133;43.214;27.906;2023-06-14T07:31:36;4.00;;;3.57;;
6199;SDS011;3133;43.214;27.906;2023-06-14T07:34:03;4.43;;;3.70;;
6199;SDS011;3133;43.214;27.906;2023-06-14T07:36:30;6.87;;;3.97;;
6199;SDS011;3133;43.214;27.906;2023-06-14T07:38:58;5.43;;;3.57;;
6199;SDS011;3133;43.214;27.906;2023-06-14T07:41:25;3.87;;;3.50;;
6199;SDS011;3133;43.214;27.906;2023-06-14T07:43:52;3.03;;;2.77;;
6199;SDS011;3133;43.214;27.906;2023-06-14T07:46:22;4.63;;;3.30;;
6199;SDS011;3133;43.214;27.906;2023-06-14T07:48:49;2.87;;;2.60;;
6199;SDS011;3133;43.214;27.906;2023-06-14T07:51:16;9.57;;;2.77;;
6199;SDS011;3133;43.214;27.906;2023-06-14T07:53:43;2.93;;;2.73;;
6199;SDS011;3133;43.214;27.906;2023-06-14T07:56:26;3.57;;;2.90;;
6199;SDS011;3133;43.214;27.906;2023-06-14T07:58:54;3.70;;;3.27;;
6199;SDS011;3133;43.214;27.906;2023-06-14T08:01:21;6.40;;;2.97;;
6199;SDS011;3133;43.214;27.906;2023-06-14T08:03:50;3.30;;;3.00;;
6199;SDS011;3133;43.214;27.906;2023-06-14T08:06:17;8.30;;;3.67;;
6199;SDS011;3133;43.214;27.906;2023-06-14T08:08:44;8.97;;;3.57;;
6199;SDS011;3133;43.214;27.906;2023-06-14T08:11:11;4.73;;;2.83;;
6199;SDS011;3133;43.214;27.906;2023-06-14T08:13:39;5.30;;;3.30;;
6199;SDS011;3133;43.214;27.906;2023-06-14T08:16:06;3.10;;;2.80;;
6199;SDS011;3133;43.214;27.906;2023-06-14T08:18:35;3.70;;;3.27;;
6199;SDS011;3133;43.214;27.906;2023-06-14T08:21:03;5.57;;;3.20;;
6199;SDS011;3133;43.214;27.906;2023-06-14T08:23:29;4.07;;;3.33;;
6199;SDS011;3133;43.214;27.906;2023-06-14T08:25:56;6.77;;;3.80;;
6199;SDS011;3133;43.214;27.906;2023-06-14T08:28:26;16.17;;;4.93;;
6199;SDS011;3133;43.214;27.906;2023-06-14T08:30:54;14.77;;;3.90;;
6199;SDS011;3133;43.214;27.906;2023-06-14T08:33:21;5.47;;;3.50;;
6199;SDS011;3133;43.214;27.906;2023-06-14T08:35:48;8.77;;;3.40;;
6199;SDS011;3133;43.214;27.906;2023-06-14T08:38:15;9.90;;;3.60;;
6199;SDS011;3133;43.214;27.906;2023-06-14T08:40:42;19.10;;;4.70;;
6199;SDS011;3133;43.214;27.906;2023-06-14T08:43:09;3.87;;;3.47;;
6199;SDS011;3133;43.214;27.906;2023-06-14T08:45:36;4.23;;;3.23;;
6199;SDS011;3133;43.214;27.906;2023-06-14T08:48:05;3.20;;;2.90;;
6199;SDS011;3133;43.214;27.906;2023-06-14T08:50:34;8.80;;;3.63;;
6199;SDS011;3133;43.214;27.906;2023-06-14T08:53:04;5.43;;;3.37;;
6199;SDS011;3133;43.214;27.906;2023-06-14T08:55:35;6.60;;;4.40;;
6199;SDS011;3133;43.214;27.906;2023-06-14T08:58:06;5.97;;;4.30;;
6199;SDS011;3133;43.214;27.906;2023-06-14T09:00:34;5.80;;;3.30;;
6199;SDS011;3133;43.214;27.906;2023-06-14T09:03:12;4.63;;;3.40;;
6199;SDS011;3133;43.214;27.906;2023-06-14T09:05:39;4.17;;;3.30;;
6199;SDS011;3133;43.214;27.906;2023-06-14T09:08:06;4.57;;;3.47;;
6199;SDS011;3133;43.214;27.906;2023-06-14T09:10:36;4.80;;;3.10;;
6199;SDS011;3133;43.214;27.906;2023-06-14T09:13:06;7.57;;;3.17;;
6199;SDS011;3133;43.214;27.906;2023-06-14T09:15:33;4.73;;;3.53;;
6199;SDS011;3133;43.214;27.906;2023-06-14T09:18:01;8.00;;;3.70;;
6199;SDS011;3133;43.214;27.906;2023-06-14T09:20:31;4.17;;;3.77;;
6199;SDS011;3133;43.214;27.906;2023-06-14T09:22:58;7.93;;;3.80;;
6199;SDS011;3133;43.214;27.906;2023-06-14T09:25:26;4.40;;;4.00;;
6199;SDS011;3133;43.214;27.906;2023-06-14T09:27:53;14.17;;;4.87;;
6199;SDS011;3133;43.214;27.906;2023-06-14T09:30:21;13.93;;;5.77;;
6199;SDS011;3133;43.214;27.906;2023-06-14T09:32:50;6.47;;;4.13;;
6199;SDS011;3133;43.214;27.906;2023-06-14T09:35:17;5.27;;;4.40;;
6199;SDS011;3133;43.214;27.906;2023-06-14T09:37:47;6.97;;;3.90;;
6199;SDS011;3133;43.214;27.906;2023-06-14T09:40:21;4.83;;;4.10;;
6199;SDS011;3133;43.214;27.906;2023-06-14T09:42:49;6.70;;;4.50;;
6199;SDS011;3133;43.214;27.906;2023-06-14T09:45:23;48.00;;;7.23;;
6199;SDS011;3133;43.214;27.906;2023-06-14T09:47:54;21.50;;;4.93;;
6199;SDS011;3133;43.214;27.906;2023-06-14T09:50:23;12.20;;;4.33;;
6199;SDS011;3133;43.214;27.906;2023-06-14T09:53:00;18.47;;;5.27;;
6199;SDS011;3133;43.214;27.906;2023-06-14T09:55:34;6.80;;;4.10;;
6199;SDS011;3133;43.214;27.906;2023-06-14T09:58:23;6.13;;;4.23;;
6199;SDS011;3133;43.214;27.906;2023-06-14T10:00:56;6.10;;;3.60;;
6199;SDS011;3133;43.214;27.906;2023-06-14T10:03:36;5.47;;;3.90;;
6199;SDS011;3133;43.214;27.906;2023-06-14T10:06:08;5.47;;;4.13;;
6199;SDS011;3133;43.214;27.906;2023-06-14T10:08:52;7.97;;;4.30;;
6199;SDS011;3133;43.214;27.906;2023-06-14T10:11:27;5.63;;;4.23;;
6199;SDS011;3133;43.214;27.906;2023-06-14T10:14:22;10.13;;;3.53;;
6199;SDS011;3133;43.214;27.906;2023-06-14T10:16:59;5.13;;;3.83;;
6199;SDS011;3133;43.214;27.906;2023-06-14T10:19:34;5.77;;;3.60;;
6199;SDS011;3133;43.214;27.906;2023-06-14T10:22:12;6.73;;;3.93;;
6199;SDS011;3133;43.214;27.906;2023-06-14T10:25:01;7.70;;;3.60;;
6199;SDS011;3133;43.214;27.906;2023-06-14T10:27:29;4.43;;;3.27;;
6199;SDS011;3133;43.214;27.906;2023-06-14T10:30:04;8.90;;;4.10;;
6199;SDS011;3133;43.214;27.906;2023-06-14T10:33:05;71.13;;;11.53;;
6199;SDS011;3133;43.214;27.906;2023-06-14T10:35:45;13.00;;;4.27;;
6199;SDS011;3133;43.214;27.906;2023-06-14T10:38:30;10.40;;;3.70;;
6199;SDS011;3133;43.214;27.906;2023-06-14T10:47:19;24.40;;;5.10;;
6199;SDS011;3133;43.214;27.906;2023-06-14T10:49:49;12.83;;;3.97;;
6199;SDS011;3133;43.214;27.906;2023-06-14T10:52:23;21.50;;;4.67;;
6199;SDS011;3133;43.214;27.906;2023-06-14T10:54:58;76.43;;;9.77;;
6199;SDS011;3133;43.214;27.906;2023-06-14T10:57:34;16.93;;;4.17;;
6199;SDS011;3133;43.214;27.906;2023-06-14T11:00:09;22.03;;;5.90;;
6199;SDS011;3133;43.214;27.906;2023-06-14T11:03:04;28.97;;;6.50;;
6199;SDS011;3133;43.214;27.906;2023-06-14T11:05:58;80.80;;;9.13;;
6199;SDS011;3133;43.214;27.906;2023-06-14T11:11:37;4.73;;;3.57;;
6199;SDS011;3133;43.214;27.906;2023-06-14T11:14:17;8.00;;;4.00;;
6199;SDS011;3133;43.214;27.906;2023-06-14T11:16:53;8.33;;;3.67;;
6199;SDS011;3133;43.214;27.906;2023-06-14T11:19:21;5.80;;;3.57;;
6199;SDS011;3133;43.214;27.906;2023-06-14T11:21:48;4.83;;;3.67;;
6199;SDS011;3133;43.214;27.906;2023-06-14T11:24:16;20.97;;;5.23;;
6199;SDS011;3133;43.214;27.906;2023-06-14T11:26:43;6.03;;;3.57;;
6199;SDS011;3133;43.214;27.906;2023-06-14T11:29:24;28.97;;;5.40;;
6199;SDS011;3133;43.214;27.906;2023-06-14T11:31:51;3.83;;;3.47;;
6199;SDS011;3133;43.214;27.906;2023-06-14T11:34:19;5.63;;;4.13;;
6199;SDS011;3133;43.214;27.906;2023-06-14T11:36:51;5.63;;;3.37;;
6199;SDS011;3133;43.214;27.906;2023-06-14T11:39:24;4.30;;;3.40;;
6199;SDS011;3133;43.214;27.906;2023-06-14T11:41:52;5.77;;;3.70;;
6199;SDS011;3133;43.214;27.906;2023-06-14T11:44:20;3.97;;;3.60;;
6199;SDS011;3133;43.214;27.906;2023-06-14T11:46:51;4.33;;;3.83;;
6199;SDS011;3133;43.214;27.906;2023-06-14T11:55:58;4.77;;;3.73;;
6199;SDS011;3133;43.214;27.906;2023-06-14T12:01:47;14.97;;;3.50;;
6199;SDS011;3133;43.214;27.906;2023-06-14T12:04:22;4.43;;;3.90;;
6199;SDS011;3133;43.214;27.906;2023-06-14T12:10:11;7.43;;;3.93;;
6199;SDS011;3133;43.214;27.906;2023-06-14T12:12:42;9.47;;;3.90;;
6199;SDS011;3133;43.214;27.906;2023-06-14T12:18:31;14.37;;;5.33;;
6199;SDS011;3133;43.214;27.906;2023-06-14T12:21:04;4.17;;;3.77;;
6199;SDS011;3133;43.214;27.906;2023-06-14T12:26:54;6.07;;;4.27;;
6199;SDS011;3133;43.214;27.906;2023-06-14T12:29:28;13.87;;;5.93;;
6199;SDS011;3133;43.214;27.906;2023-06-14T12:35:16;11.83;;;7.13;;
6199;SDS011;3133;43.214;27.906;2023-06-14T12:37:43;12.23;;;7.10;;
6199;SDS011;3133;43.214;27.906;2023-06-14T12:43:32;10.87;;;5.33;;
6199;SDS011;3133;43.214;27.906;2023-06-14T12:49:22;10.10;;;7.40;;
6199;SDS011;3133;43.214;27.906;2023-06-14T12:55:10;7.53;;;6.73;;
6199;SDS011;3133;43.214;27.906;2023-06-14T12:57:37;10.53;;;7.73;;
6199;SDS011;3133;43.214;27.906;2023-06-14T13:03:25;9.00;;;7.30;;
6199;SDS011;3133;43.214;27.906;2023-06-14T13:05:54;12.27;;;7.80;;
6199;SDS011;3133;43.214;27.906;2023-06-14T13:11:43;8.00;;;6.97;;
6199;SDS011;3133;43.214;27.906;2023-06-14T13:17:34;14.63;;;8.03;;
6199;SDS011;3133;43.214;27.906;2023-06-14T13:20:03;18.43;;;8.23;;
6199;SDS011;3133;43.214;27.906;2023-06-14T13:25:54;10.30;;;7.20;;
6199;SDS011;3133;43.214;27.906;2023-06-14T13:28:22;7.77;;;6.23;;
6199;SDS011;3133;43.214;27.906;2023-06-14T13:34:11;7.37;;;6.57;;
6199;SDS011;3133;43.214;27.906;2023-06-14T13:36:38;9.53;;;6.40;;
6199;SDS011;3133;43.214;27.906;2023-06-14T13:42:29;13.10;;;6.87;;
6199;SDS011;3133;43.214;27.906;2023-06-14T13:48:18;8.17;;;6.53;;
6199;SDS011;3133;43.214;27.906;2023-06-14T13:50:46;7.33;;;6.37;;
6199;SDS011;3133;43.214;27.906;2023-06-14T13:56:35;11.57;;;8.03;;
6199;SDS011;3133;43.214;27.906;2023-06-14T13:59:04;9.43;;;7.40;;
6199;SDS011;3133;43.214;27.906;2023-06-14T14:04:52;8.40;;;7.50;;
6199;SDS011;3133;43.214;27.906;2023-06-14T14:10:42;8.70;;;7.80;;
6199;SDS011;3133;43.214;27.906;2023-06-14T14:16:32;10.67;;;7.60;;
6199;SDS011;3133;43.214;27.906;2023-06-14T14:19:05;12.23;;;7.90;;
6199;SDS011;3133;43.214;27.906;2023-06-14T14:24:53;11.57;;;8.10;;
6199;SDS011;3133;43.214;27.906;2023-06-14T14:27:20;10.50;;;7.30;;
6199;SDS011;3133;43.214;27.906;2023-06-14T14:33:10;12.33;;;8.20;;
6199;SDS011;3133;43.214;27.906;2023-06-14T14:35:42;11.13;;;8.00;;
6199;SDS011;3133;43.214;27.906;2023-06-14T14:41:31;9.40;;;8.40;;
6199;SDS011;3133;43.214;27.906;2023-06-14T14:44:04;11.97;;;7.53;;
6199;SDS011;3133;43.214;27.906;2023-06-14T14:49:54;10.20;;;9.07;;
6199;SDS011;3133;43.214;27.906;2023-06-14T14:52:22;13.60;;;8.67;;
6199;SDS011;3133;43.214;27.906;2023-06-14T14:58:11;11.90;;;9.27;;
6199;SDS011;3133;43.214;27.906;2023-06-14T15:04:01;12.27;;;9.07;;
6199;SDS011;3133;43.214;27.906;2023-06-14T15:09:51;12.13;;;9.53;;
6199;SDS011;3133;43.214;27.906;2023-06-14T15:19:01;15.10;;;9.67;;
6199;SDS011;3133;43.214;27.906;2023-06-14T15:24:51;11.27;;;9.50;;
6199;SDS011;3133;43.214;27.906;2023-06-14T15:30:39;12.10;;;10.13;;
6199;SDS011;3133;43.214;27.906;2023-06-14T15:36:28;11.53;;;9.40;;
6199;SDS011;3133;43.214;27.906;2023-06-14T15:38:54;13.83;;;10.93;;
6199;SDS011;3133;43.214;27.906;2023-06-14T15:44:44;11.70;;;9.27;;
6199;SDS011;3133;43.214;27.906;2023-06-14T15:47:17;16.37;;;10.13;;
6199;SDS011;3133;43.214;27.906;2023-06-14T15:56:27;11.77;;;10.50;;
6199;SDS011;3133;43.214;27.906;2023-06-14T16:02:17;14.53;;;10.50;;
6199;SDS011;3133;43.214;27.906;2023-06-14T16:19:59;14.10;;;10.57;;
6199;SDS011;3133;43.214;27.906;2023-06-14T16:22:25;15.23;;;10.30;;
6199;SDS011;3133;43.214;27.906;2023-06-14T16:28:13;12.97;;;9.73;;
6199;SDS011;3133;43.214;27.906;2023-06-14T16:30:40;15.57;;;11.37;;
6199;SDS011;3133;43.214;27.906;2023-06-14T16:36:10;14.20;;;10.90;;
6199;SDS011;3133;43.214;27.906;2023-06-14T16:38:37;31.57;;;11.63;;
6199;SDS011;3133;43.214;27.906;2023-06-14T16:47:47;19.70;;;11.33;;
6199;SDS011;3133;43.214;27.906;2023-06-14T16:53:37;19.40;;;10.57;;
6199;SDS011;3133;43.214;27.906;2023-06-14T16:56:04;14.63;;;10.73;;
6199;SDS011;3133;43.214;27.906;2023-06-14T17:01:52;13.17;;;10.33;;
6199;SDS011;3133;43.214;27.906;2023-06-14T17:07:49;10.83;;;9.67;;
6199;SDS011;3133;43.214;27.906;2023-06-14T17:13:38;12.50;;;10.57;;
6199;SDS011;3133;43.214;27.906;2023-06-14T17:16:05;16.03;;;11.47;;
6199;SDS011;3133;43.214;27.906;2023-06-14T17:25:15;15.57;;;11.43;;
6199;SDS011;3133;43.214;27.906;2023-06-14T17:31:05;11.20;;;10.00;;
6199;SDS011;3133;43.214;27.906;2023-06-14T17:36:54;11.23;;;9.77;;
6199;SDS011;3133;43.214;27.906;2023-06-14T17:42:42;14.27;;;10.37;;
6199;SDS011;3133;43.214;27.906;2023-06-14T17:45:09;15.67;;;10.53;;
6199;SDS011;3133;43.214;27.906;2023-06-14T17:51:00;12.27;;;10.50;;
6199;SDS011;3133;43.214;27.906;2023-06-14T17:53:32;12.13;;;10.37;;
6199;SDS011;3133;43.214;27.906;2023-06-14T17:59:26;14.00;;;11.43;;
6199;SDS011;3133;43.214;27.906;2023-06-14T18:05:20;12.03;;;9.87;;
6199;SDS011;3133;43.214;27.906;2023-06-14T18:11:10;14.50;;;11.00;;
6199;SDS011;3133;43.214;27.906;2023-06-14T18:13:36;13.37;;;11.27;;
6199;SDS011;3133;43.214;27.906;2023-06-14T18:26:11;14.03;;;11.50;;
6199;SDS011;3133;43.214;27.906;2023-06-14T18:28:39;12.53;;;10.87;;
6199;SDS011;3133;43.214;27.906;2023-06-14T18:31:05;18.40;;;11.10;;
6199;SDS011;3133;43.214;27.906;2023-06-14T18:33:37;13.50;;;10.50;;
6199;SDS011;3133;43.214;27.906;2023-06-14T18:39:31;12.97;;;9.20;;
6199;SDS011;3133;43.214;27.906;2023-06-14T18:45:22;14.03;;;10.67;;
6199;SDS011;3133;43.214;27.906;2023-06-14T18:51:10;12.93;;;10.07;;
6199;SDS011;3133;43.214;27.906;2023-06-14T18:56:58;12.77;;;9.30;;